Terminal Aerodrome Forecast
Issued by NWS

Home | Current Version | Previous Version | Graphics & Text | Print | Product List | Glossary On
Versions: 1 2 3 4 5 6 7 8 9 10 11 12 13
000
FTUS43 KMPX 031737
TAFAXN
TAF
KAXN 031737Z 0318/0418 28018G24KT P6SM SCT100 BKN200
     FM031900 31020G30KT P6SM SKC
     FM040100 35009KT P6SM SKC
     FM041600 35015G21KT P6SM FEW250=

USA.gov is the U.S. government's official web portal to all federal, state and local government web resources and services.